createdAt,value
2022-09-06T00:01:14.242Z,1.98
2022-09-06T00:04:55.985Z,2.17
2022-09-06T00:08:38.815Z,1.92
2022-09-06T00:12:21.313Z,1.92
2022-09-06T00:16:14.803Z,1.90
2022-09-06T00:19:56.695Z,3.20
2022-09-06T00:23:38.462Z,4.97
2022-09-06T00:27:20.339Z,4.10
2022-09-06T00:31:10.414Z,3.60
2022-09-06T00:34:52.304Z,3.20
2022-09-06T00:38:34.163Z,2.90
2022-09-06T00:42:15.938Z,3.05
2022-09-06T00:45:57.933Z,2.58
2022-09-06T00:49:46.171Z,2.70
2022-09-06T00:53:28.642Z,2.10
2022-09-06T00:57:10.902Z,2.28
2022-09-06T01:00:53.109Z,2.10
2022-09-06T01:04:36.540Z,2.08
2022-09-06T01:08:18.465Z,2.10
2022-09-06T01:12:09.307Z,2.20
2022-09-06T01:16:22.926Z,2.15
2022-09-06T01:20:23.457Z,1.88
2022-09-06T01:24:42.090Z,1.83
2022-09-06T01:28:42.746Z,1.95
2022-09-06T01:32:32.981Z,1.80
2022-09-06T01:36:19.818Z,2.15
2022-09-06T01:40:01.743Z,2.20
2022-09-06T01:43:48.444Z,2.20
2022-09-06T01:47:51.465Z,2.45
2022-09-06T01:51:42.242Z,2.30
2022-09-06T01:55:34.856Z,2.00
2022-09-06T01:59:50.185Z,1.90
2022-09-06T02:03:41.438Z,2.15
2022-09-06T02:07:28.715Z,2.17
2022-09-06T02:11:11.102Z,2.35
2022-09-06T02:14:58.645Z,2.50
2022-09-06T02:18:47.729Z,2.35
2022-09-06T02:22:34.764Z,2.10
2022-09-06T02:26:24.597Z,2.50
2022-09-06T02:30:07.013Z,2.35
2022-09-06T02:33:50.510Z,2.95
2022-09-06T02:37:32.890Z,2.42
2022-09-06T02:41:18.474Z,2.40
2022-09-06T02:45:00.274Z,2.10
2022-09-06T02:48:42.099Z,2.17
2022-09-06T02:52:23.867Z,2.40
2022-09-06T02:56:05.918Z,2.60
2022-09-06T02:59:47.683Z,2.20
2022-09-06T03:03:29.553Z,2.10
2022-09-06T03:07:11.326Z,2.33
2022-09-06T03:10:56.080Z,2.22
2022-09-06T03:14:37.913Z,2.10
2022-09-06T03:18:19.980Z,2.35
2022-09-06T03:22:01.945Z,2.03
2022-09-06T03:25:44.603Z,2.28
2022-09-06T03:29:26.381Z,2.20
2022-09-06T03:33:08.152Z,2.25
2022-09-06T03:36:50.041Z,2.10
2022-09-06T03:40:31.798Z,2.40
2022-09-06T03:44:13.515Z,2.30
2022-09-06T03:47:55.296Z,2.10
2022-09-06T03:51:37.139Z,2.05
2022-09-06T03:55:18.930Z,2.20
2022-09-06T03:59:00.727Z,2.40
2022-09-06T04:02:42.543Z,2.15
2022-09-06T04:06:24.412Z,2.25
2022-09-06T04:10:06.841Z,2.25
2022-09-06T04:13:48.717Z,2.10
2022-09-06T04:17:30.462Z,2.28
2022-09-06T04:21:12.318Z,2.38
2022-09-06T04:24:54.138Z,2.20
2022-09-06T04:28:35.919Z,2.40
2022-09-06T04:32:17.699Z,2.30
2022-09-06T04:36:01.261Z,2.58
2022-09-06T04:39:43.136Z,2.72
2022-09-06T04:43:25.063Z,2.70
2022-09-06T04:47:12.641Z,2.90
2022-09-06T04:50:54.460Z,2.92
2022-09-06T04:54:36.251Z,3.00
2022-09-06T04:58:18.050Z,2.75
2022-09-06T05:01:59.898Z,2.63
2022-09-06T05:05:41.697Z,2.90
2022-09-06T05:09:23.457Z,3.05
2022-09-06T05:13:05.197Z,3.13
2022-09-06T05:16:47.347Z,2.88
2022-09-06T05:20:29.085Z,3.10
2022-09-06T05:24:11.311Z,3.65
2022-09-06T05:27:53.063Z,2.72
2022-09-06T05:31:35.708Z,2.65
2022-09-06T05:35:17.483Z,2.65
2022-09-06T05:38:59.791Z,2.65
2022-09-06T05:42:41.601Z,2.53
2022-09-06T05:46:23.471Z,3.08
2022-09-06T05:50:06.962Z,2.60
2022-09-06T05:53:48.814Z,3.15
2022-09-06T05:57:30.647Z,3.00
2022-09-06T06:01:26.632Z,2.70
2022-09-06T06:05:08.785Z,2.60
2022-09-06T06:08:50.928Z,2.85
2022-09-06T06:12:32.939Z,3.50
2022-09-06T06:16:17.109Z,3.00
2022-09-06T06:19:58.958Z,3.35
2022-09-06T06:23:42.241Z,3.25
2022-09-06T06:27:24.086Z,2.95
2022-09-06T06:31:07.641Z,3.05
2022-09-06T06:34:49.467Z,4.28
2022-09-06T06:38:37.454Z,3.17
2022-09-06T06:46:00.893Z,3.15
2022-09-06T06:49:42.739Z,3.22
2022-09-06T06:53:24.735Z,2.72
2022-09-06T06:57:06.886Z,2.72
2022-09-06T07:00:48.794Z,2.95
2022-09-06T07:04:30.666Z,3.10
2022-09-06T07:08:13.301Z,3.10
2022-09-06T07:11:55.131Z,2.70
2022-09-06T07:15:36.984Z,2.80
2022-09-06T07:35:27.698Z,3.25
2022-09-06T07:39:09.446Z,3.80
2022-09-06T07:42:51.476Z,2.97
2022-09-06T07:46:33.302Z,3.42
2022-09-06T07:54:32.295Z,3.35
2022-09-06T07:58:14.226Z,3.58
2022-09-06T08:01:56.052Z,3.72
2022-09-06T08:09:40.126Z,3.28
2022-09-06T08:13:21.948Z,3.10
2022-09-06T08:17:04.275Z,3.10
2022-09-06T08:20:46.092Z,2.95
2022-09-06T08:24:27.971Z,3.00
2022-09-06T08:28:09.718Z,2.75
2022-09-06T08:31:51.715Z,3.28
2022-09-06T08:35:33.518Z,2.90
2022-09-06T08:39:16.754Z,2.90
2022-09-06T08:42:58.906Z,2.60
2022-09-06T08:47:04.629Z,2.47
2022-09-06T08:50:59.575Z,3.00
2022-09-06T08:54:47.575Z,2.60
2022-09-06T08:58:37.232Z,3.38
2022-09-06T09:02:21.527Z,3.30
2022-09-06T09:06:05.469Z,3.10
2022-09-06T09:09:47.449Z,3.22
2022-09-06T09:13:38.005Z,2.70
2022-09-06T09:17:26.182Z,2.78
2022-09-06T09:21:09.698Z,2.85
2022-09-06T09:24:53.038Z,3.03
2022-09-06T09:28:35.864Z,2.38
2022-09-06T09:32:32.925Z,2.55
2022-09-06T09:36:14.735Z,2.75
2022-09-06T09:39:58.540Z,3.00
2022-09-06T09:43:42.494Z,3.38
2022-09-06T09:47:28.508Z,3.33
2022-09-06T09:51:26.164Z,2.85
2022-09-06T09:55:10.990Z,3.30
2022-09-06T09:58:54.791Z,3.03
2022-09-06T10:02:41.460Z,3.30
2022-09-06T10:10:34.566Z,2.75
2022-09-06T10:14:41.415Z,2.88
2022-09-06T10:18:43.766Z,2.85
2022-09-06T10:22:40.624Z,2.70
2022-09-06T10:26:50.261Z,2.47
2022-09-06T10:30:34.726Z,2.60
2022-09-06T10:34:25.430Z,3.00
2022-09-06T10:38:32.466Z,2.63
2022-09-06T10:42:45.393Z,2.33
2022-09-06T10:46:29.170Z,2.88
2022-09-06T10:50:11.025Z,2.67
2022-09-06T10:53:55.873Z,2.35
2022-09-06T11:02:24.192Z,2.53
2022-09-06T11:06:10.937Z,2.40
2022-09-06T11:10:30.733Z,2.35
2022-09-06T11:14:15.512Z,2.80
2022-09-06T11:18:27.852Z,2.47
2022-09-06T11:22:47.305Z,2.80
2022-09-06T11:26:56.075Z,2.30
2022-09-06T11:30:43.152Z,2.53
2022-09-06T11:34:49.080Z,2.40
2022-09-06T11:38:30.935Z,2.80
2022-09-06T11:42:46.425Z,2.10
2022-09-06T11:46:33.911Z,2.38
2022-09-06T11:50:21.493Z,2.33
2022-09-06T11:54:11.401Z,2.50
2022-09-06T11:57:57.186Z,2.42
2022-09-06T12:01:40.964Z,2.30
2022-09-06T12:05:29.183Z,2.53
2022-09-06T12:09:32.998Z,3.05
2022-09-06T12:13:34.522Z,2.72
2022-09-06T12:17:20.621Z,3.10
2022-09-06T12:21:03.206Z,2.65
2022-09-06T12:24:44.933Z,2.78
2022-09-06T12:28:33.143Z,2.33
2022-09-06T12:32:20.439Z,2.33
2022-09-06T12:36:23.611Z,2.05
2022-09-06T12:40:07.437Z,2.17
2022-09-06T12:43:49.695Z,2.20
2022-09-06T12:47:34.823Z,1.80
2022-09-06T12:51:21.646Z,1.85
2022-09-06T12:55:16.042Z,1.97
2022-09-06T12:59:17.146Z,2.00
2022-09-06T13:03:02.158Z,2.00
2022-09-06T13:06:46.457Z,2.13
2022-09-06T13:10:28.942Z,1.92
2022-09-06T13:14:14.513Z,2.10
2022-09-06T13:18:36.131Z,2.40
2022-09-06T13:22:39.539Z,2.50
2022-09-06T13:26:40.286Z,2.83
2022-09-06T13:30:34.586Z,2.40
2022-09-06T13:34:28.972Z,3.08
2022-09-06T13:38:31.744Z,2.95
2022-09-06T13:42:38.185Z,2.45
2022-09-06T13:46:19.986Z,2.90
2022-09-06T13:50:02.060Z,2.90
2022-09-06T13:53:43.921Z,2.67
2022-09-06T13:57:25.668Z,3.05
2022-09-06T14:01:10.521Z,2.58
2022-09-06T14:04:52.334Z,2.70
2022-09-06T14:09:02.890Z,3.00
2022-09-06T14:12:38.455Z,2.58
2022-09-06T14:16:20.518Z,2.33
2022-09-06T14:20:02.574Z,2.50
2022-09-06T14:23:50.878Z,2.58
2022-09-06T14:27:33.037Z,2.35
2022-09-06T14:31:20.789Z,2.95
2022-09-06T14:35:05.516Z,2.60
2022-09-06T14:38:47.966Z,2.33
2022-09-06T14:42:30.063Z,2.70
2022-09-06T14:46:14.855Z,2.80
2022-09-06T14:49:56.715Z,2.70
2022-09-06T14:53:43.381Z,2.65
2022-09-06T14:57:25.336Z,2.95
2022-09-06T15:01:10.120Z,3.17
2022-09-06T15:04:51.925Z,2.88
2022-09-06T15:08:33.823Z,2.95
2022-09-06T15:12:15.690Z,3.00
2022-09-06T15:15:57.650Z,3.15
2022-09-06T15:19:39.651Z,2.40
2022-09-06T15:23:25.332Z,3.03
2022-09-06T15:27:07.591Z,2.17
2022-09-06T15:30:49.795Z,2.60
2022-09-06T15:34:31.598Z,2.92
2022-09-06T15:38:13.338Z,2.55
2022-09-06T15:41:55.113Z,2.60
2022-09-06T15:45:50.153Z,2.60
2022-09-06T15:49:32.805Z,2.38
2022-09-06T15:53:14.559Z,2.40
2022-09-06T15:56:58.117Z,3.20
2022-09-06T16:00:39.890Z,3.25
2022-09-06T16:04:21.918Z,2.92
2022-09-06T16:08:04.015Z,2.53
2022-09-06T16:11:45.917Z,2.60
2022-09-06T16:15:27.633Z,2.40
2022-09-06T16:19:13.146Z,2.65
2022-09-06T16:22:54.874Z,2.53
2022-09-06T16:26:39.533Z,2.97
2022-09-06T16:30:22.087Z,2.40
2022-09-06T16:34:04.009Z,3.00
2022-09-06T16:37:45.766Z,3.92
2022-09-06T16:41:33.851Z,3.00
2022-09-06T16:45:15.626Z,3.17
2022-09-06T16:49:02.911Z,2.83
2022-09-06T16:52:44.690Z,2.88
2022-09-06T16:56:29.446Z,2.75
2022-09-06T17:00:13.126Z,2.90
2022-09-06T17:03:55.094Z,2.80
2022-09-06T17:07:37.454Z,3.08
2022-09-06T17:11:21.140Z,2.97
2022-09-06T17:15:03.000Z,2.85
2022-09-06T17:18:44.785Z,2.38
2022-09-06T17:22:26.544Z,2.13
2022-09-06T17:26:08.774Z,2.42
2022-09-06T17:29:50.595Z,2.30
2022-09-06T17:33:33.337Z,2.70
2022-09-06T17:37:15.347Z,2.30
2022-09-06T17:40:59.550Z,2.80
2022-09-06T17:44:41.292Z,2.65
2022-09-06T17:48:24.991Z,2.90
2022-09-06T17:52:06.834Z,3.00
2022-09-06T17:55:51.980Z,3.05
2022-09-06T17:59:35.836Z,2.53
2022-09-06T18:03:17.814Z,3.00
2022-09-06T18:06:59.581Z,2.90
2022-09-06T18:10:41.367Z,3.05
2022-09-06T18:14:23.179Z,3.25
2022-09-06T18:18:05.066Z,3.40
2022-09-06T18:21:47.418Z,4.03
2022-09-06T18:25:29.190Z,3.33
2022-09-06T18:29:14.544Z,3.25
2022-09-06T18:32:56.292Z,3.40
2022-09-06T18:36:38.537Z,3.50
2022-09-06T18:40:20.270Z,4.07
2022-09-06T18:44:04.339Z,3.85
2022-09-06T18:47:46.174Z,3.75
2022-09-06T18:51:28.299Z,3.20
2022-09-06T18:55:10.106Z,2.78
2022-09-06T18:58:55.744Z,2.90
2022-09-06T19:02:37.593Z,2.47
2022-09-06T19:06:21.210Z,2.72
2022-09-06T19:10:03.058Z,2.80
2022-09-06T19:13:46.066Z,2.67
2022-09-06T19:17:27.806Z,2.40
2022-09-06T19:21:15.131Z,2.38
2022-09-06T19:24:56.990Z,2.40
2022-09-06T19:28:40.370Z,2.30
2022-09-06T19:32:22.363Z,2.47
2022-09-06T19:36:12.554Z,1.90
2022-09-06T19:39:54.739Z,2.28
2022-09-06T19:43:37.474Z,2.58
2022-09-06T19:47:19.290Z,2.33
2022-09-06T19:51:08.331Z,2.70
2022-09-06T19:54:50.074Z,2.35
2022-09-06T19:58:31.823Z,2.55
2022-09-06T20:02:13.597Z,2.28
2022-09-06T20:05:59.583Z,2.45
2022-09-06T20:09:41.616Z,2.75
2022-09-06T20:13:23.498Z,2.25
2022-09-06T20:17:29.601Z,2.03
2022-09-06T20:21:08.081Z,2.22
2022-09-06T20:24:49.898Z,2.10
2022-09-06T20:28:33.057Z,2.35
2022-09-06T20:32:14.798Z,2.05
2022-09-06T20:35:59.401Z,2.30
2022-09-06T20:39:41.268Z,2.85
2022-09-06T20:43:23.089Z,2.45
2022-09-06T20:47:05.430Z,2.78
2022-09-06T20:50:55.350Z,2.80
2022-09-06T20:54:37.149Z,2.63
2022-09-06T20:58:19.012Z,3.10
2022-09-06T21:02:00.855Z,3.00
2022-09-06T21:05:43.525Z,3.00
2022-09-06T21:09:25.290Z,3.30
2022-09-06T21:13:07.144Z,3.35
2022-09-06T21:16:48.955Z,3.45
2022-09-06T21:20:31.607Z,3.70
2022-09-06T21:24:13.441Z,3.17
2022-09-06T21:27:56.001Z,3.83
2022-09-06T21:31:38.175Z,3.72
2022-09-06T21:35:20.008Z,3.35
2022-09-06T21:39:05.377Z,3.60
2022-09-06T21:42:47.387Z,3.55
2022-09-06T21:46:34.514Z,3.60
2022-09-06T21:50:16.445Z,3.13
2022-09-06T21:53:58.530Z,3.10
2022-09-06T21:57:40.250Z,3.72
2022-09-06T22:01:26.873Z,3.75
2022-09-06T22:05:09.210Z,3.72
2022-09-06T22:08:52.658Z,3.47
2022-09-06T22:12:34.380Z,2.95
2022-09-06T22:16:19.103Z,4.10
2022-09-06T22:20:00.887Z,3.78
2022-09-06T22:23:42.667Z,3.22
2022-09-06T22:27:24.541Z,3.28
2022-09-06T22:31:07.228Z,4.15
2022-09-06T22:34:49.056Z,3.42
2022-09-06T22:38:31.248Z,3.83
2022-09-06T22:42:13.237Z,3.50
2022-09-06T22:46:01.397Z,3.35
2022-09-06T22:49:43.142Z,3.40
2022-09-06T22:53:24.934Z,3.70
2022-09-06T22:57:06.677Z,4.03
2022-09-06T23:00:48.644Z,3.50
2022-09-06T23:04:31.967Z,3.30
2022-09-06T23:08:14.821Z,3.17
2022-09-06T23:11:56.587Z,3.28
2022-09-06T23:15:40.893Z,3.08
2022-09-06T23:19:22.811Z,3.17
2022-09-06T23:23:07.009Z,3.70
2022-09-06T23:26:48.947Z,3.08
2022-09-06T23:30:30.851Z,3.55
2022-09-06T23:34:13.032Z,4.03
2022-09-06T23:37:54.859Z,3.30
2022-09-06T23:41:36.608Z,3.30
2022-09-06T23:45:18.373Z,3.42
2022-09-06T23:49:00.162Z,3.30
2022-09-06T23:52:41.988Z,3.42
2022-09-06T23:56:23.807Z,3.30
